FQTT

Chingozi Airport

Tete, Mozambique
TAF FQTT 162200Z 1700/1800 VRB03KT 9999 BKN020 BECMG 1707/1709 16008KT SCT015 //END PART 01//
Issued Valid From Valid To
Jul-16 @ 22:00 UTC
(2 hours ago)
Jul-17 @ 00:00 UTC
(25 minutes ago)
Jul-18 @ 00:00 UTC
(in 24 hours)
Jul-17 @ 00:00 to Jul-17 @ 07:00
TAF FQTT 162200Z 1700/1800 VRB03KT 9999 BKN020
Wind Visibility Clouds
Variable at 3 knots 10,000+ meters
  • Broken at 2,000' AGL
Becoming Jul-17 @ 07:00 to Jul-18 @ 00:00
BECMG 1707/1709 16008KT SCT015 //END PART 01//
Wind Visibility Clouds
160° at 8 knots 10,000+ meters
  • Scattered at 1,500' AGL
TAF FQTT 162200Z 1700/1800 VRB03KT 9999 BKN020 BECMG 1707/1709 16008KT SCT015 //END PART 01//
Issued Jul-16 @ 22:00 UTC
(2 hours ago)
Valid From Jul-17 @ 00:00 UTC
(25 minutes ago)
Valid To Jul-18 @ 00:00 UTC
(in 24 hours)
Jul-17 @ 00:00 - Jul-17 @ 07:00
Wind Visibility
Variable at 3 knots 10,000+ meters
Clouds
  • Broken at 2,000' AGL
Becoming Jul-17 @ 07:00 - Jul-18 @ 00:00
Wind Visibility
160° at 8 knots 10,000+ meters
Clouds
  • Scattered at 1,500' AGL